sensor_id;sensor_type;location;lat;lon;timestamp;P1;durP1;ratioP1;P2;durP2;ratioP2
33501;SDS011;22396;51.070;4.974;2023-09-08T00:02:22;7.93;;;5.38;;
33501;SDS011;22396;51.070;4.974;2023-09-08T00:04:48;10.00;;;6.70;;
33501;SDS011;22396;51.070;4.974;2023-09-08T00:07:13;9.50;;;5.82;;
33501;SDS011;22396;51.070;4.974;2023-09-08T00:09:38;10.20;;;5.38;;
33501;SDS011;22396;51.070;4.974;2023-09-08T00:12:04;10.98;;;6.30;;
33501;SDS011;22396;51.070;4.974;2023-09-08T00:14:29;9.73;;;5.47;;
33501;SDS011;22396;51.070;4.974;2023-09-08T00:16:54;9.00;;;5.45;;
33501;SDS011;22396;51.070;4.974;2023-09-08T00:19:22;11.70;;;5.60;;
33501;SDS011;22396;51.070;4.974;2023-09-08T00:21:50;10.55;;;5.60;;
33501;SDS011;22396;51.070;4.974;2023-09-08T00:24:16;9.30;;;5.22;;
33501;SDS011;22396;51.070;4.974;2023-09-08T00:26:41;7.97;;;4.88;;
33501;SDS011;22396;51.070;4.974;2023-09-08T00:29:06;8.57;;;5.10;;
33501;SDS011;22396;51.070;4.974;2023-09-08T00:31:32;13.45;;;6.03;;
33501;SDS011;22396;51.070;4.974;2023-09-08T00:33:58;9.90;;;6.20;;
33501;SDS011;22396;51.070;4.974;2023-09-08T00:36:23;8.40;;;5.53;;
33501;SDS011;22396;51.070;4.974;2023-09-08T00:38:49;8.73;;;5.80;;
33501;SDS011;22396;51.070;4.974;2023-09-08T00:41:14;10.68;;;5.50;;
33501;SDS011;22396;51.070;4.974;2023-09-08T00:43:42;9.95;;;5.57;;
33501;SDS011;22396;51.070;4.974;2023-09-08T00:46:11;9.25;;;5.93;;
33501;SDS011;22396;51.070;4.974;2023-09-08T00:48:36;14.98;;;6.15;;
33501;SDS011;22396;51.070;4.974;2023-09-08T00:51:02;10.45;;;5.80;;
33501;SDS011;22396;51.070;4.974;2023-09-08T00:53:30;9.73;;;5.53;;
33501;SDS011;22396;51.070;4.974;2023-09-08T00:55:55;10.45;;;6.20;;
33501;SDS011;22396;51.070;4.974;2023-09-08T00:58:21;9.40;;;6.00;;
33501;SDS011;22396;51.070;4.974;2023-09-08T01:00:49;10.13;;;6.20;;
33501;SDS011;22396;51.070;4.974;2023-09-08T01:03:15;14.43;;;5.70;;
33501;SDS011;22396;51.070;4.974;2023-09-08T01:05:41;13.98;;;5.90;;
33501;SDS011;22396;51.070;4.974;2023-09-08T01:08:07;9.63;;;5.78;;
33501;SDS011;22396;51.070;4.974;2023-09-08T01:10:34;9.98;;;5.82;;
33501;SDS011;22396;51.070;4.974;2023-09-08T01:12:59;12.20;;;5.43;;
33501;SDS011;22396;51.070;4.974;2023-09-08T01:15:25;8.18;;;5.40;;
33501;SDS011;22396;51.070;4.974;2023-09-08T01:17:54;8.38;;;5.70;;
33501;SDS011;22396;51.070;4.974;2023-09-08T01:20:22;9.98;;;5.88;;
33501;SDS011;22396;51.070;4.974;2023-09-08T01:25:24;11.50;;;5.68;;
33501;SDS011;22396;51.070;4.974;2023-09-08T01:27:51;8.52;;;5.25;;
33501;SDS011;22396;51.070;4.974;2023-09-08T01:30:17;11.50;;;5.53;;
33501;SDS011;22396;51.070;4.974;2023-09-08T01:32:43;8.50;;;5.57;;
33501;SDS011;22396;51.070;4.974;2023-09-08T01:35:13;9.68;;;5.93;;
33501;SDS011;22396;51.070;4.974;2023-09-08T01:37:42;9.00;;;5.53;;
33501;SDS011;22396;51.070;4.974;2023-09-08T01:40:09;9.52;;;5.40;;
33501;SDS011;22396;51.070;4.974;2023-09-08T01:42:35;10.00;;;6.10;;
33501;SDS011;22396;51.070;4.974;2023-09-08T01:45:03;13.68;;;6.20;;
33501;SDS011;22396;51.070;4.974;2023-09-08T01:47:29;11.32;;;6.32;;
33501;SDS011;22396;51.070;4.974;2023-09-08T01:49:54;12.13;;;5.47;;
33501;SDS011;22396;51.070;4.974;2023-09-08T01:52:22;11.50;;;5.82;;
33501;SDS011;22396;51.070;4.974;2023-09-08T01:54:47;8.52;;;5.57;;
33501;SDS011;22396;51.070;4.974;2023-09-08T01:57:12;16.10;;;5.80;;
33501;SDS011;22396;51.070;4.974;2023-09-08T01:59:38;9.50;;;5.40;;
33501;SDS011;22396;51.070;4.974;2023-09-08T02:02:03;8.30;;;5.50;;
33501;SDS011;22396;51.070;4.974;2023-09-08T02:04:32;11.18;;;5.30;;
33501;SDS011;22396;51.070;4.974;2023-09-08T02:07:00;8.52;;;5.55;;
33501;SDS011;22396;51.070;4.974;2023-09-08T02:09:30;9.00;;;5.88;;
33501;SDS011;22396;51.070;4.974;2023-09-08T02:11:58;9.07;;;5.40;;
33501;SDS011;22396;51.070;4.974;2023-09-08T02:14:23;8.35;;;5.35;;
33501;SDS011;22396;51.070;4.974;2023-09-08T02:16:49;8.88;;;5.50;;
33501;SDS011;22396;51.070;4.974;2023-09-08T02:19:17;11.50;;;4.63;;
33501;SDS011;22396;51.070;4.974;2023-09-08T02:21:43;10.27;;;5.82;;
33501;SDS011;22396;51.070;4.974;2023-09-08T02:24:08;19.15;;;5.97;;
33501;SDS011;22396;51.070;4.974;2023-09-08T02:26:34;14.23;;;5.90;;
33501;SDS011;22396;51.070;4.974;2023-09-08T02:29:00;10.55;;;6.50;;
33501;SDS011;22396;51.070;4.974;2023-09-08T02:31:26;11.95;;;5.65;;
33501;SDS011;22396;51.070;4.974;2023-09-08T02:33:52;14.23;;;5.60;;
33501;SDS011;22396;51.070;4.974;2023-09-08T02:36:17;8.52;;;5.18;;
33501;SDS011;22396;51.070;4.974;2023-09-08T02:38:43;9.48;;;5.43;;
33501;SDS011;22396;51.070;4.974;2023-09-08T02:41:08;10.25;;;5.35;;
33501;SDS011;22396;51.070;4.974;2023-09-08T02:43:34;9.38;;;5.63;;
33501;SDS011;22396;51.070;4.974;2023-09-08T02:46:00;11.10;;;5.53;;
33501;SDS011;22396;51.070;4.974;2023-09-08T02:48:28;10.20;;;6.05;;
33501;SDS011;22396;51.070;4.974;2023-09-08T02:50:54;8.05;;;5.45;;
33501;SDS011;22396;51.070;4.974;2023-09-08T02:53:22;10.15;;;5.53;;
33501;SDS011;22396;51.070;4.974;2023-09-08T02:55:48;10.57;;;5.35;;
33501;SDS011;22396;51.070;4.974;2023-09-08T02:58:21;7.72;;;4.65;;
33501;SDS011;22396;51.070;4.974;2023-09-08T03:00:46;10.23;;;5.97;;
33501;SDS011;22396;51.070;4.974;2023-09-08T03:03:11;10.50;;;7.00;;
33501;SDS011;22396;51.070;4.974;2023-09-08T03:05:37;11.15;;;6.68;;
33501;SDS011;22396;51.070;4.974;2023-09-08T03:08:02;11.43;;;6.35;;
33501;SDS011;22396;51.070;4.974;2023-09-08T03:10:28;11.82;;;6.85;;
33501;SDS011;22396;51.070;4.974;2023-09-08T03:12:53;10.45;;;6.05;;
33501;SDS011;22396;51.070;4.974;2023-09-08T03:15:19;9.25;;;5.78;;
33501;SDS011;22396;51.070;4.974;2023-09-08T03:17:44;11.82;;;5.97;;
33501;SDS011;22396;51.070;4.974;2023-09-08T03:20:12;9.43;;;5.50;;
33501;SDS011;22396;51.070;4.974;2023-09-08T03:22:38;8.68;;;5.63;;
33501;SDS011;22396;51.070;4.974;2023-09-08T03:25:04;9.75;;;5.85;;
33501;SDS011;22396;51.070;4.974;2023-09-08T03:27:32;8.85;;;5.60;;
33501;SDS011;22396;51.070;4.974;2023-09-08T03:29:57;14.82;;;6.20;;
33501;SDS011;22396;51.070;4.974;2023-09-08T03:32:22;12.07;;;5.78;;
33501;SDS011;22396;51.070;4.974;2023-09-08T03:34:48;9.63;;;6.05;;
33501;SDS011;22396;51.070;4.974;2023-09-08T03:37:22;9.60;;;6.00;;
33501;SDS011;22396;51.070;4.974;2023-09-08T03:39:47;10.23;;;6.00;;
33501;SDS011;22396;51.070;4.974;2023-09-08T03:42:12;9.90;;;5.95;;
33501;SDS011;22396;51.070;4.974;2023-09-08T03:44:38;8.60;;;5.75;;
33501;SDS011;22396;51.070;4.974;2023-09-08T03:47:03;11.38;;;5.85;;
33501;SDS011;22396;51.070;4.974;2023-09-08T03:49:29;11.95;;;5.78;;
33501;SDS011;22396;51.070;4.974;2023-09-08T03:51:56;7.68;;;5.20;;
33501;SDS011;22396;51.070;4.974;2023-09-08T03:54:27;11.25;;;5.90;;
33501;SDS011;22396;51.070;4.974;2023-09-08T03:56:53;9.38;;;5.22;;
33501;SDS011;22396;51.070;4.974;2023-09-08T03:59:18;12.85;;;5.95;;
33501;SDS011;22396;51.070;4.974;2023-09-08T04:01:44;10.45;;;5.75;;
33501;SDS011;22396;51.070;4.974;2023-09-08T04:04:10;9.55;;;5.93;;
33501;SDS011;22396;51.070;4.974;2023-09-08T04:06:35;16.05;;;6.15;;
33501;SDS011;22396;51.070;4.974;2023-09-08T04:09:01;10.63;;;5.55;;
33501;SDS011;22396;51.070;4.974;2023-09-08T04:11:29;11.52;;;6.20;;
33501;SDS011;22396;51.070;4.974;2023-09-08T04:13:57;8.88;;;5.47;;
33501;SDS011;22396;51.070;4.974;2023-09-08T04:16:22;11.77;;;5.53;;
33501;SDS011;22396;51.070;4.974;2023-09-08T04:18:48;9.07;;;5.85;;
33501;SDS011;22396;51.070;4.974;2023-09-08T04:21:13;12.30;;;6.28;;
33501;SDS011;22396;51.070;4.974;2023-09-08T04:23:44;10.55;;;5.00;;
33501;SDS011;22396;51.070;4.974;2023-09-08T04:26:11;9.77;;;5.78;;
33501;SDS011;22396;51.070;4.974;2023-09-08T04:28:37;8.98;;;5.40;;
33501;SDS011;22396;51.070;4.974;2023-09-08T04:31:02;9.40;;;5.45;;
33501;SDS011;22396;51.070;4.974;2023-09-08T04:33:27;10.05;;;5.57;;
33501;SDS011;22396;51.070;4.974;2023-09-08T04:35:54;9.95;;;5.53;;
33501;SDS011;22396;51.070;4.974;2023-09-08T04:38:19;8.77;;;5.80;;
33501;SDS011;22396;51.070;4.974;2023-09-08T04:40:47;10.48;;;5.95;;
33501;SDS011;22396;51.070;4.974;2023-09-08T04:43:13;10.23;;;5.72;;
33501;SDS011;22396;51.070;4.974;2023-09-08T04:45:38;12.93;;;5.95;;
33501;SDS011;22396;51.070;4.974;2023-09-08T04:48:04;12.10;;;5.50;;
33501;SDS011;22396;51.070;4.974;2023-09-08T04:50:29;9.82;;;5.88;;
33501;SDS011;22396;51.070;4.974;2023-09-08T04:52:54;12.77;;;6.57;;
33501;SDS011;22396;51.070;4.974;2023-09-08T04:55:20;13.27;;;6.13;;
33501;SDS011;22396;51.070;4.974;2023-09-08T04:57:45;8.73;;;5.70;;
33501;SDS011;22396;51.070;4.974;2023-09-08T05:00:14;11.52;;;6.35;;
33501;SDS011;22396;51.070;4.974;2023-09-08T05:02:39;11.13;;;6.63;;
33501;SDS011;22396;51.070;4.974;2023-09-08T05:05:05;11.60;;;7.13;;
33501;SDS011;22396;51.070;4.974;2023-09-08T05:07:30;13.05;;;6.40;;
33501;SDS011;22396;51.070;4.974;2023-09-08T05:09:55;9.60;;;6.32;;
33501;SDS011;22396;51.070;4.974;2023-09-08T05:12:21;10.05;;;6.75;;
33501;SDS011;22396;51.070;4.974;2023-09-08T05:14:46;10.90;;;6.80;;
33501;SDS011;22396;51.070;4.974;2023-09-08T05:17:11;11.25;;;6.65;;
33501;SDS011;22396;51.070;4.974;2023-09-08T05:19:37;10.43;;;6.47;;
33501;SDS011;22396;51.070;4.974;2023-09-08T05:22:04;10.48;;;6.57;;
33501;SDS011;22396;51.070;4.974;2023-09-08T05:24:30;14.32;;;6.80;;
33501;SDS011;22396;51.070;4.974;2023-09-08T05:26:58;15.32;;;6.97;;
33501;SDS011;22396;51.070;4.974;2023-09-08T05:29:23;15.27;;;7.00;;
33501;SDS011;22396;51.070;4.974;2023-09-08T05:31:49;11.85;;;7.47;;
33501;SDS011;22396;51.070;4.974;2023-09-08T05:34:14;11.65;;;7.60;;
33501;SDS011;22396;51.070;4.974;2023-09-08T05:36:40;12.95;;;7.60;;
33501;SDS011;22396;51.070;4.974;2023-09-08T05:39:07;14.55;;;8.05;;
33501;SDS011;22396;51.070;4.974;2023-09-08T05:41:32;12.57;;;8.02;;
33501;SDS011;22396;51.070;4.974;2023-09-08T05:43:58;12.50;;;7.85;;
33501;SDS011;22396;51.070;4.974;2023-09-08T05:46:24;14.85;;;8.40;;
33501;SDS011;22396;51.070;4.974;2023-09-08T05:48:49;14.90;;;8.00;;
33501;SDS011;22396;51.070;4.974;2023-09-08T05:51:15;14.48;;;8.68;;
33501;SDS011;22396;51.070;4.974;2023-09-08T05:53:40;12.98;;;8.40;;
33501;SDS011;22396;51.070;4.974;2023-09-08T05:56:06;15.38;;;8.40;;
33501;SDS011;22396;51.070;4.974;2023-09-08T05:58:31;14.90;;;8.10;;
33501;SDS011;22396;51.070;4.974;2023-09-08T06:00:57;17.33;;;8.10;;
33501;SDS011;22396;51.070;4.974;2023-09-08T06:03:22;14.57;;;8.70;;
33501;SDS011;22396;51.070;4.974;2023-09-08T06:05:47;13.48;;;8.85;;
33501;SDS011;22396;51.070;4.974;2023-09-08T06:08:12;15.82;;;8.98;;
33501;SDS011;22396;51.070;4.974;2023-09-08T06:10:38;15.63;;;9.00;;
33501;SDS011;22396;51.070;4.974;2023-09-08T06:13:04;16.48;;;8.75;;
33501;SDS011;22396;51.070;4.974;2023-09-08T06:15:29;13.52;;;8.90;;
33501;SDS011;22396;51.070;4.974;2023-09-08T06:17:54;14.82;;;8.82;;
33501;SDS011;22396;51.070;4.974;2023-09-08T06:20:20;14.77;;;8.82;;
33501;SDS011;22396;51.070;4.974;2023-09-08T06:22:46;20.27;;;8.80;;
33501;SDS011;22396;51.070;4.974;2023-09-08T06:25:11;17.77;;;9.15;;
33501;SDS011;22396;51.070;4.974;2023-09-08T06:27:44;13.48;;;7.40;;
33501;SDS011;22396;51.070;4.974;2023-09-08T06:30:12;16.58;;;9.30;;
33501;SDS011;22396;51.070;4.974;2023-09-08T06:32:41;15.07;;;8.07;;
33501;SDS011;22396;51.070;4.974;2023-09-08T06:35:07;15.57;;;8.65;;
33501;SDS011;22396;51.070;4.974;2023-09-08T06:37:36;16.33;;;8.88;;
33501;SDS011;22396;51.070;4.974;2023-09-08T06:40:03;18.83;;;8.40;;
33501;SDS011;22396;51.070;4.974;2023-09-08T06:42:28;12.20;;;7.07;;
33501;SDS011;22396;51.070;4.974;2023-09-08T06:44:53;17.42;;;8.10;;
33501;SDS011;22396;51.070;4.974;2023-09-08T06:47:22;11.93;;;8.00;;
33501;SDS011;22396;51.070;4.974;2023-09-08T06:49:48;12.43;;;7.85;;
33501;SDS011;22396;51.070;4.974;2023-09-08T06:52:13;13.52;;;8.05;;
33501;SDS011;22396;51.070;4.974;2023-09-08T06:54:42;14.23;;;8.27;;
33501;SDS011;22396;51.070;4.974;2023-09-08T06:57:11;13.48;;;8.35;;
33501;SDS011;22396;51.070;4.974;2023-09-08T06:59:37;15.02;;;8.68;;
33501;SDS011;22396;51.070;4.974;2023-09-08T07:02:02;13.13;;;8.60;;
33501;SDS011;22396;51.070;4.974;2023-09-08T07:04:29;13.57;;;9.32;;
33501;SDS011;22396;51.070;4.974;2023-09-08T07:06:54;17.02;;;9.02;;
33501;SDS011;22396;51.070;4.974;2023-09-08T07:09:20;15.05;;;8.45;;
33501;SDS011;22396;51.070;4.974;2023-09-08T07:11:45;14.20;;;8.57;;
33501;SDS011;22396;51.070;4.974;2023-09-08T07:14:10;15.93;;;8.27;;
33501;SDS011;22396;51.070;4.974;2023-09-08T07:16:35;16.63;;;8.95;;
33501;SDS011;22396;51.070;4.974;2023-09-08T07:19:01;14.05;;;8.57;;
33501;SDS011;22396;51.070;4.974;2023-09-08T07:21:32;14.65;;;8.13;;
33501;SDS011;22396;51.070;4.974;2023-09-08T07:24:00;13.07;;;7.97;;
33501;SDS011;22396;51.070;4.974;2023-09-08T07:26:25;20.40;;;9.35;;
33501;SDS011;22396;51.070;4.974;2023-09-08T07:28:51;13.80;;;8.80;;
33501;SDS011;22396;51.070;4.974;2023-09-08T07:31:16;13.18;;;8.02;;
33501;SDS011;22396;51.070;4.974;2023-09-08T07:33:41;15.57;;;8.45;;
33501;SDS011;22396;51.070;4.974;2023-09-08T07:36:07;12.20;;;7.95;;
33501;SDS011;22396;51.070;4.974;2023-09-08T07:38:33;15.68;;;7.97;;
33501;SDS011;22396;51.070;4.974;2023-09-08T07:40:59;11.80;;;7.53;;
33501;SDS011;22396;51.070;4.974;2023-09-08T07:43:27;11.60;;;7.63;;
33501;SDS011;22396;51.070;4.974;2023-09-08T07:45:52;14.07;;;7.13;;
33501;SDS011;22396;51.070;4.974;2023-09-08T07:48:18;15.55;;;7.22;;
33501;SDS011;22396;51.070;4.974;2023-09-08T07:50:44;10.20;;;7.15;;
33501;SDS011;22396;51.070;4.974;2023-09-08T07:53:10;19.25;;;7.20;;
33501;SDS011;22396;51.070;4.974;2023-09-08T07:55:36;10.60;;;7.47;;
33501;SDS011;22396;51.070;4.974;2023-09-08T07:58:02;14.82;;;7.13;;
33501;SDS011;22396;51.070;4.974;2023-09-08T08:02:59;11.00;;;6.97;;
33501;SDS011;22396;51.070;4.974;2023-09-08T08:05:25;11.50;;;7.38;;
33501;SDS011;22396;51.070;4.974;2023-09-08T08:07:51;13.57;;;8.07;;
33501;SDS011;22396;51.070;4.974;2023-09-08T08:10:16;18.35;;;8.40;;
33501;SDS011;22396;51.070;4.974;2023-09-08T08:12:49;11.68;;;7.53;;
33501;SDS011;22396;51.070;4.974;2023-09-08T08:15:15;14.65;;;7.43;;
33501;SDS011;22396;51.070;4.974;2023-09-08T08:17:40;14.55;;;7.85;;
33501;SDS011;22396;51.070;4.974;2023-09-08T08:20:10;10.70;;;7.18;;
33501;SDS011;22396;51.070;4.974;2023-09-08T08:22:42;12.88;;;7.18;;
33501;SDS011;22396;51.070;4.974;2023-09-08T08:25:19;19.75;;;8.43;;
33501;SDS011;22396;51.070;4.974;2023-09-08T08:27:48;10.65;;;7.40;;
33501;SDS011;22396;51.070;4.974;2023-09-08T08:30:13;13.70;;;8.43;;
33501;SDS011;22396;51.070;4.974;2023-09-08T08:32:39;14.57;;;8.68;;
33501;SDS011;22396;51.070;4.974;2023-09-08T08:35:04;15.00;;;7.38;;
33501;SDS011;22396;51.070;4.974;2023-09-08T08:37:29;16.63;;;7.75;;
33501;SDS011;22396;51.070;4.974;2023-09-08T08:39:55;17.48;;;7.85;;
33501;SDS011;22396;51.070;4.974;2023-09-08T08:42:20;14.43;;;8.85;;
33501;SDS011;22396;51.070;4.974;2023-09-08T08:44:47;12.80;;;7.45;;
33501;SDS011;22396;51.070;4.974;2023-09-08T08:47:13;12.80;;;7.90;;
33501;SDS011;22396;51.070;4.974;2023-09-08T08:49:38;12.88;;;7.65;;
33501;SDS011;22396;51.070;4.974;2023-09-08T08:52:07;9.43;;;6.47;;
33501;SDS011;22396;51.070;4.974;2023-09-08T08:54:40;11.82;;;7.38;;
33501;SDS011;22396;51.070;4.974;2023-09-08T08:57:05;14.57;;;8.75;;
33501;SDS011;22396;51.070;4.974;2023-09-08T08:59:33;13.48;;;8.57;;
33501;SDS011;22396;51.070;4.974;2023-09-08T09:01:59;15.07;;;8.25;;
33501;SDS011;22396;51.070;4.974;2023-09-08T09:04:25;12.70;;;7.13;;
33501;SDS011;22396;51.070;4.974;2023-09-08T09:06:50;18.55;;;9.23;;
33501;SDS011;22396;51.070;4.974;2023-09-08T09:09:16;11.77;;;7.90;;
33501;SDS011;22396;51.070;4.974;2023-09-08T09:11:41;17.23;;;9.63;;
33501;SDS011;22396;51.070;4.974;2023-09-08T09:14:07;11.50;;;8.18;;
33501;SDS011;22396;51.070;4.974;2023-09-08T09:16:39;20.05;;;9.00;;
33501;SDS011;22396;51.070;4.974;2023-09-08T09:19:05;12.93;;;7.88;;
33501;SDS011;22396;51.070;4.974;2023-09-08T09:21:46;14.52;;;8.57;;
33501;SDS011;22396;51.070;4.974;2023-09-08T09:26:58;15.07;;;8.00;;
33501;SDS011;22396;51.070;4.974;2023-09-08T09:29:24;16.58;;;7.55;;
33501;SDS011;22396;51.070;4.974;2023-09-08T09:31:53;10.55;;;6.47;;
33501;SDS011;22396;51.070;4.974;2023-09-08T09:34:20;15.20;;;8.23;;
33501;SDS011;22396;51.070;4.974;2023-09-08T09:36:47;14.23;;;9.55;;
33501;SDS011;22396;51.070;4.974;2023-09-08T09:39:15;21.67;;;9.57;;
33501;SDS011;22396;51.070;4.974;2023-09-08T09:41:41;15.85;;;9.70;;
33501;SDS011;22396;51.070;4.974;2023-09-08T09:44:06;14.88;;;8.85;;
33501;SDS011;22396;51.070;4.974;2023-09-08T09:46:33;19.38;;;9.80;;
33501;SDS011;22396;51.070;4.974;2023-09-08T09:48:58;19.02;;;9.00;;
33501;SDS011;22396;51.070;4.974;2023-09-08T09:51:24;14.98;;;7.95;;
33501;SDS011;22396;51.070;4.974;2023-09-08T09:53:52;13.57;;;8.02;;
33501;SDS011;22396;51.070;4.974;2023-09-08T09:56:19;11.57;;;7.38;;
33501;SDS011;22396;51.070;4.974;2023-09-08T09:58:45;13.23;;;8.07;;
33501;SDS011;22396;51.070;4.974;2023-09-08T10:01:11;17.02;;;8.63;;
33501;SDS011;22396;51.070;4.974;2023-09-08T10:03:39;13.38;;;7.40;;
33501;SDS011;22396;51.070;4.974;2023-09-08T10:06:05;14.80;;;7.60;;
33501;SDS011;22396;51.070;4.974;2023-09-08T10:08:34;13.25;;;7.45;;
33501;SDS011;22396;51.070;4.974;2023-09-08T10:11:02;13.90;;;9.70;;
33501;SDS011;22396;51.070;4.974;2023-09-08T10:13:30;15.85;;;8.30;;
33501;SDS011;22396;51.070;4.974;2023-09-08T10:15:56;13.38;;;7.35;;
33501;SDS011;22396;51.070;4.974;2023-09-08T10:18:25;12.82;;;8.23;;
33501;SDS011;22396;51.070;4.974;2023-09-08T10:20:53;12.25;;;6.70;;
33501;SDS011;22396;51.070;4.974;2023-09-08T10:23:31;19.45;;;9.23;;
33501;SDS011;22396;51.070;4.974;2023-09-08T10:26:03;14.63;;;7.95;;
33501;SDS011;22396;51.070;4.974;2023-09-08T10:28:31;10.55;;;7.32;;
33501;SDS011;22396;51.070;4.974;2023-09-08T10:30:57;12.25;;;8.25;;
33501;SDS011;22396;51.070;4.974;2023-09-08T10:33:23;13.13;;;6.60;;
33501;SDS011;22396;51.070;4.974;2023-09-08T10:35:49;8.98;;;6.30;;
33501;SDS011;22396;51.070;4.974;2023-09-08T10:40:49;13.20;;;7.30;;
33501;SDS011;22396;51.070;4.974;2023-09-08T10:43:15;16.15;;;8.65;;
33501;SDS011;22396;51.070;4.974;2023-09-08T10:45:40;14.27;;;7.65;;
33501;SDS011;22396;51.070;4.974;2023-09-08T10:48:09;10.35;;;6.35;;
33501;SDS011;22396;51.070;4.974;2023-09-08T10:50:38;10.05;;;6.03;;
33501;SDS011;22396;51.070;4.974;2023-09-08T10:53:15;12.30;;;7.05;;
33501;SDS011;22396;51.070;4.974;2023-09-08T10:58:17;11.75;;;7.93;;
33501;SDS011;22396;51.070;4.974;2023-09-08T11:00:43;15.00;;;8.63;;
33501;SDS011;22396;51.070;4.974;2023-09-08T11:03:08;13.50;;;6.80;;
33501;SDS011;22396;51.070;4.974;2023-09-08T11:05:34;10.20;;;6.28;;
33501;SDS011;22396;51.070;4.974;2023-09-08T11:08:00;9.70;;;6.57;;
33501;SDS011;22396;51.070;4.974;2023-09-08T11:10:25;14.55;;;7.10;;
33501;SDS011;22396;51.070;4.974;2023-09-08T11:12:53;13.23;;;6.05;;
33501;SDS011;22396;51.070;4.974;2023-09-08T11:15:19;10.80;;;5.78;;
33501;SDS011;22396;51.070;4.974;2023-09-08T11:17:47;13.50;;;6.30;;
33501;SDS011;22396;51.070;4.974;2023-09-08T11:20:16;13.23;;;7.13;;
33501;SDS011;22396;51.070;4.974;2023-09-08T11:22:41;13.70;;;6.85;;
33501;SDS011;22396;51.070;4.974;2023-09-08T11:25:09;15.25;;;7.85;;
33501;SDS011;22396;51.070;4.974;2023-09-08T11:27:37;11.32;;;6.75;;
33501;SDS011;22396;51.070;4.974;2023-09-08T11:30:07;10.07;;;5.82;;
33501;SDS011;22396;51.070;4.974;2023-09-08T11:32:33;15.18;;;7.05;;
33501;SDS011;22396;51.070;4.974;2023-09-08T11:35:05;11.10;;;6.15;;
33501;SDS011;22396;51.070;4.974;2023-09-08T11:37:38;17.50;;;8.05;;
33501;SDS011;22396;51.070;4.974;2023-09-08T11:40:07;11.13;;;6.43;;
33501;SDS011;22396;51.070;4.974;2023-09-08T11:42:37;24.48;;;7.13;;
33501;SDS011;22396;51.070;4.974;2023-09-08T11:45:05;16.05;;;7.93;;
33501;SDS011;22396;51.070;4.974;2023-09-08T11:47:31;12.48;;;6.35;;
33501;SDS011;22396;51.070;4.974;2023-09-08T11:49:56;9.93;;;6.18;;
33501;SDS011;22396;51.070;4.974;2023-09-08T11:52:22;9.52;;;6.57;;
33501;SDS011;22396;51.070;4.974;2023-09-08T11:54:50;13.30;;;8.10;;
33501;SDS011;22396;51.070;4.974;2023-09-08T11:57:23;10.60;;;5.97;;
33501;SDS011;22396;51.070;4.974;2023-09-08T11:59:49;8.48;;;6.07;;
33501;SDS011;22396;51.070;4.974;2023-09-08T12:02:15;9.60;;;6.68;;
33501;SDS011;22396;51.070;4.974;2023-09-08T12:04:40;10.35;;;6.60;;
33501;SDS011;22396;51.070;4.974;2023-09-08T12:07:07;13.35;;;5.57;;
33501;SDS011;22396;51.070;4.974;2023-09-08T12:09:34;8.98;;;6.18;;
33501;SDS011;22396;51.070;4.974;2023-09-08T12:11:59;9.38;;;5.55;;
33501;SDS011;22396;51.070;4.974;2023-09-08T12:14:27;9.82;;;6.18;;
33501;SDS011;22396;51.070;4.974;2023-09-08T12:17:04;9.00;;;6.20;;
33501;SDS011;22396;51.070;4.974;2023-09-08T12:19:30;10.85;;;5.72;;
33501;SDS011;22396;51.070;4.974;2023-09-08T12:22:02;11.90;;;5.97;;
33501;SDS011;22396;51.070;4.974;2023-09-08T12:27:12;8.10;;;5.72;;
33501;SDS011;22396;51.070;4.974;2023-09-08T12:29:37;11.18;;;6.30;;
33501;SDS011;22396;51.070;4.974;2023-09-08T12:32:03;9.82;;;5.97;;
33501;SDS011;22396;51.070;4.974;2023-09-08T12:34:28;10.35;;;5.18;;
33501;SDS011;22396;51.070;4.974;2023-09-08T12:36:55;10.95;;;6.28;;
33501;SDS011;22396;51.070;4.974;2023-09-08T12:39:20;9.25;;;5.88;;
33501;SDS011;22396;51.070;4.974;2023-09-08T12:41:46;13.05;;;5.90;;
33501;SDS011;22396;51.070;4.974;2023-09-08T12:44:11;10.48;;;5.65;;
33501;SDS011;22396;51.070;4.974;2023-09-08T12:46:36;8.80;;;5.93;;
33501;SDS011;22396;51.070;4.974;2023-09-08T12:49:02;12.75;;;6.13;;
33501;SDS011;22396;51.070;4.974;2023-09-08T12:51:27;10.88;;;7.07;;
33501;SDS011;22396;51.070;4.974;2023-09-08T12:53:52;7.70;;;5.10;;
33501;SDS011;22396;51.070;4.974;2023-09-08T12:56:17;7.65;;;5.10;;
33501;SDS011;22396;51.070;4.974;2023-09-08T12:58:43;8.15;;;5.28;;
33501;SDS011;22396;51.070;4.974;2023-09-08T13:01:10;10.43;;;5.72;;
33501;SDS011;22396;51.070;4.974;2023-09-08T13:03:36;8.45;;;5.18;;
33501;SDS011;22396;51.070;4.974;2023-09-08T13:06:01;8.27;;;5.43;;
33501;SDS011;22396;51.070;4.974;2023-09-08T13:08:26;7.03;;;5.22;;
33501;SDS011;22396;51.070;4.974;2023-09-08T13:10:52;8.55;;;4.88;;
33501;SDS011;22396;51.070;4.974;2023-09-08T13:13:17;8.50;;;4.78;;
33501;SDS011;22396;51.070;4.974;2023-09-08T13:15:42;9.63;;;4.65;;
33501;SDS011;22396;51.070;4.974;2023-09-08T13:18:08;7.50;;;4.78;;
33501;SDS011;22396;51.070;4.974;2023-09-08T13:20:33;6.38;;;3.80;;
33501;SDS011;22396;51.070;4.974;2023-09-08T13:23:01;7.57;;;5.10;;
33501;SDS011;22396;51.070;4.974;2023-09-08T13:25:26;7.80;;;4.63;;
33501;SDS011;22396;51.070;4.974;2023-09-08T13:27:51;8.05;;;4.95;;
33501;SDS011;22396;51.070;4.974;2023-09-08T13:30:17;7.75;;;4.10;;
33501;SDS011;22396;51.070;4.974;2023-09-08T13:35:38;11.23;;;3.60;;
33501;SDS011;22396;51.070;4.974;2023-09-08T13:38:14;8.35;;;3.38;;
33501;SDS011;22396;51.070;4.974;2023-09-08T13:40:52;7.10;;;4.32;;
33501;SDS011;22396;51.070;4.974;2023-09-08T13:43:18;14.95;;;4.80;;
33501;SDS011;22396;51.070;4.974;2023-09-08T13:45:52;8.10;;;4.40;;
33501;SDS011;22396;51.070;4.974;2023-09-08T13:48:18;9.65;;;4.05;;
33501;SDS011;22396;51.070;4.974;2023-09-08T13:50:43;9.25;;;4.00;;
33501;SDS011;22396;51.070;4.974;2023-09-08T13:53:09;12.35;;;3.78;;
33501;SDS011;22396;51.070;4.974;2023-09-08T13:55:38;8.57;;;4.30;;
33501;SDS011;22396;51.070;4.974;2023-09-08T13:58:07;13.65;;;3.83;;
33501;SDS011;22396;51.070;4.974;2023-09-08T14:00:32;5.38;;;3.20;;
33501;SDS011;22396;51.070;4.974;2023-09-08T14:02:57;7.55;;;3.60;;
33501;SDS011;22396;51.070;4.974;2023-09-08T14:05:23;6.07;;;3.20;;
33501;SDS011;22396;51.070;4.974;2023-09-08T14:07:48;7.55;;;3.70;;
33501;SDS011;22396;51.070;4.974;2023-09-08T14:10:13;11.55;;;3.45;;
33501;SDS011;22396;51.070;4.974;2023-09-08T14:12:39;8.25;;;3.30;;
33501;SDS011;22396;51.070;4.974;2023-09-08T14:15:06;6.10;;;3.22;;
33501;SDS011;22396;51.070;4.974;2023-09-08T14:17:32;10.80;;;3.13;;
33501;SDS011;22396;51.070;4.974;2023-09-08T14:19:57;10.82;;;3.58;;
33501;SDS011;22396;51.070;4.974;2023-09-08T14:22:23;8.65;;;3.72;;
33501;SDS011;22396;51.070;4.974;2023-09-08T14:24:48;13.10;;;3.10;;
33501;SDS011;22396;51.070;4.974;2023-09-08T14:27:13;6.95;;;2.88;;
33501;SDS011;22396;51.070;4.974;2023-09-08T14:29:41;8.45;;;2.70;;
33501;SDS011;22396;51.070;4.974;2023-09-08T14:32:07;8.45;;;3.20;;
33501;SDS011;22396;51.070;4.974;2023-09-08T14:34:32;7.43;;;3.13;;
33501;SDS011;22396;51.070;4.974;2023-09-08T14:36:57;6.18;;;3.33;;
33501;SDS011;22396;51.070;4.974;2023-09-08T14:39:23;9.40;;;3.30;;
33501;SDS011;22396;51.070;4.974;2023-09-08T14:41:51;8.75;;;3.67;;
33501;SDS011;22396;51.070;4.974;2023-09-08T14:44:17;12.05;;;3.25;;
33501;SDS011;22396;51.070;4.974;2023-09-08T14:46:43;10.57;;;3.88;;
33501;SDS011;22396;51.070;4.974;2023-09-08T14:49:08;7.28;;;3.97;;
33501;SDS011;22396;51.070;4.974;2023-09-08T14:51:40;9.52;;;3.55;;
33501;SDS011;22396;51.070;4.974;2023-09-08T14:54:05;9.15;;;3.33;;